Jackson Springs, North Carolina
Current Conditions -  °F | °C
As of 8:35 AM on Thursday 30 Oct 2014 (Local Time) from KSOP Reporting Station
Clear Clear  
Wind Chill: 11°   Ceiling: Unl
Heat Index: 11°   Visibility: 10mi
Dew Point:   Wind: 5mph
Humidity: 71%   Direction: 10°N
Pressure: 30.05"   Gusts: NA
Location:  35.21°N, 79.63°W
Report Text: KSOP 301235Z AUTO 01004KT 10SM CLR 11/06 A3005 RMK AO1
Loading
Personal Weather Stations






























Interactive Weather Map
Tropical Storm Tracking
New forecast layout! Learn more

10-Day Weather Forecast

Advertisements
Track Severe Weather on mobile